sensor_id;sensor_type;location;lat;lon;timestamp;P1;durP1;ratioP1;P2;durP2;ratioP2
33714;SDS011;20043;50.998;4.754;2023-03-01T00:01:39;19.13;;;11.60;;
33714;SDS011;20043;50.998;4.754;2023-03-01T00:04:05;20.45;;;12.00;;
33714;SDS011;20043;50.998;4.754;2023-03-01T00:06:30;22.08;;;13.40;;
33714;SDS011;20043;50.998;4.754;2023-03-01T00:08:56;23.00;;;13.63;;
33714;SDS011;20043;50.998;4.754;2023-03-01T00:11:23;19.70;;;12.98;;
33714;SDS011;20043;50.998;4.754;2023-03-01T00:13:55;18.60;;;11.60;;
33714;SDS011;20043;50.998;4.754;2023-03-01T00:16:26;16.38;;;11.75;;
33714;SDS011;20043;50.998;4.754;2023-03-01T00:18:58;18.65;;;12.30;;
33714;SDS011;20043;50.998;4.754;2023-03-01T00:21:24;22.42;;;12.98;;
33714;SDS011;20043;50.998;4.754;2023-03-01T00:23:51;23.40;;;13.27;;
33714;SDS011;20043;50.998;4.754;2023-03-01T00:26:17;21.48;;;14.30;;
33714;SDS011;20043;50.998;4.754;2023-03-01T00:28:44;22.20;;;13.73;;
33714;SDS011;20043;50.998;4.754;2023-03-01T00:31:12;20.00;;;12.95;;
33714;SDS011;20043;50.998;4.754;2023-03-01T00:33:40;16.90;;;11.80;;
33714;SDS011;20043;50.998;4.754;2023-03-01T00:36:06;23.95;;;12.30;;
33714;SDS011;20043;50.998;4.754;2023-03-01T00:38:38;21.60;;;12.88;;
33714;SDS011;20043;50.998;4.754;2023-03-01T00:41:05;22.17;;;13.43;;
33714;SDS011;20043;50.998;4.754;2023-03-01T00:43:32;24.63;;;15.13;;
33714;SDS011;20043;50.998;4.754;2023-03-01T00:46:11;21.85;;;13.30;;
33714;SDS011;20043;50.998;4.754;2023-03-01T00:48:39;26.75;;;13.15;;
33714;SDS011;20043;50.998;4.754;2023-03-01T00:51:06;23.00;;;12.63;;
33714;SDS011;20043;50.998;4.754;2023-03-01T00:53:42;23.42;;;13.35;;
33714;SDS011;20043;50.998;4.754;2023-03-01T00:56:09;22.75;;;12.75;;
33714;SDS011;20043;50.998;4.754;2023-03-01T00:58:36;21.58;;;11.82;;
33714;SDS011;20043;50.998;4.754;2023-03-01T01:01:12;21.55;;;13.30;;
33714;SDS011;20043;50.998;4.754;2023-03-01T01:03:51;21.45;;;11.85;;
33714;SDS011;20043;50.998;4.754;2023-03-01T01:06:25;19.08;;;11.55;;
33714;SDS011;20043;50.998;4.754;2023-03-01T01:08:59;17.42;;;11.70;;
33714;SDS011;20043;50.998;4.754;2023-03-01T01:11:26;20.42;;;11.82;;
33714;SDS011;20043;50.998;4.754;2023-03-01T01:13:53;19.67;;;11.80;;
33714;SDS011;20043;50.998;4.754;2023-03-01T01:16:20;17.38;;;11.15;;
33714;SDS011;20043;50.998;4.754;2023-03-01T01:18:49;20.58;;;11.75;;
33714;SDS011;20043;50.998;4.754;2023-03-01T01:21:16;17.63;;;11.27;;
33714;SDS011;20043;50.998;4.754;2023-03-01T01:23:43;20.23;;;10.73;;
33714;SDS011;20043;50.998;4.754;2023-03-01T01:26:11;16.70;;;10.95;;
33714;SDS011;20043;50.998;4.754;2023-03-01T01:28:38;17.27;;;10.77;;
33714;SDS011;20043;50.998;4.754;2023-03-01T01:31:05;22.92;;;11.20;;
33714;SDS011;20043;50.998;4.754;2023-03-01T01:33:31;18.73;;;11.13;;
33714;SDS011;20043;50.998;4.754;2023-03-01T01:35:57;17.77;;;11.00;;
33714;SDS011;20043;50.998;4.754;2023-03-01T01:38:23;21.80;;;10.23;;
33714;SDS011;20043;50.998;4.754;2023-03-01T01:40:49;19.65;;;10.52;;
33714;SDS011;20043;50.998;4.754;2023-03-01T01:43:21;16.75;;;10.23;;
33714;SDS011;20043;50.998;4.754;2023-03-01T01:45:49;15.15;;;10.48;;
33714;SDS011;20043;50.998;4.754;2023-03-01T01:48:20;16.70;;;10.43;;
33714;SDS011;20043;50.998;4.754;2023-03-01T01:50:50;17.92;;;10.88;;
33714;SDS011;20043;50.998;4.754;2023-03-01T01:53:20;19.13;;;11.30;;
33714;SDS011;20043;50.998;4.754;2023-03-01T01:55:54;19.70;;;11.30;;
33714;SDS011;20043;50.998;4.754;2023-03-01T01:58:22;14.63;;;10.50;;
33714;SDS011;20043;50.998;4.754;2023-03-01T02:00:52;16.38;;;11.23;;
33714;SDS011;20043;50.998;4.754;2023-03-01T02:03:31;15.88;;;10.88;;
33714;SDS011;20043;50.998;4.754;2023-03-01T02:08:28;19.00;;;11.85;;
33714;SDS011;20043;50.998;4.754;2023-03-01T02:10:57;16.73;;;10.43;;
33714;SDS011;20043;50.998;4.754;2023-03-01T02:13:25;21.13;;;11.13;;
33714;SDS011;20043;50.998;4.754;2023-03-01T02:15:51;19.35;;;12.00;;
33714;SDS011;20043;50.998;4.754;2023-03-01T02:18:17;15.82;;;10.85;;
33714;SDS011;20043;50.998;4.754;2023-03-01T02:20:51;18.67;;;11.48;;
33714;SDS011;20043;50.998;4.754;2023-03-01T02:23:20;17.02;;;11.00;;
33714;SDS011;20043;50.998;4.754;2023-03-01T02:28:36;17.33;;;10.88;;
33714;SDS011;20043;50.998;4.754;2023-03-01T02:31:04;18.55;;;11.18;;
33714;SDS011;20043;50.998;4.754;2023-03-01T02:33:51;16.83;;;11.60;;
33714;SDS011;20043;50.998;4.754;2023-03-01T02:36:28;18.95;;;10.90;;
33714;SDS011;20043;50.998;4.754;2023-03-01T02:38:59;17.15;;;11.88;;
33714;SDS011;20043;50.998;4.754;2023-03-01T02:41:28;18.70;;;11.10;;
33714;SDS011;20043;50.998;4.754;2023-03-01T02:43:58;21.67;;;12.18;;
33714;SDS011;20043;50.998;4.754;2023-03-01T02:46:24;17.50;;;11.50;;
33714;SDS011;20043;50.998;4.754;2023-03-01T02:48:52;20.30;;;12.40;;
33714;SDS011;20043;50.998;4.754;2023-03-01T02:51:24;18.95;;;11.98;;
33714;SDS011;20043;50.998;4.754;2023-03-01T02:56:29;17.77;;;10.90;;
33714;SDS011;20043;50.998;4.754;2023-03-01T02:58:55;20.95;;;12.57;;
33714;SDS011;20043;50.998;4.754;2023-03-01T03:01:25;18.77;;;11.38;;
33714;SDS011;20043;50.998;4.754;2023-03-01T03:04:01;19.48;;;11.63;;
33714;SDS011;20043;50.998;4.754;2023-03-01T03:06:35;20.35;;;11.63;;
33714;SDS011;20043;50.998;4.754;2023-03-01T03:09:01;21.58;;;12.68;;
33714;SDS011;20043;50.998;4.754;2023-03-01T03:11:28;17.40;;;11.35;;
33714;SDS011;20043;50.998;4.754;2023-03-01T03:13:54;19.13;;;12.48;;
33714;SDS011;20043;50.998;4.754;2023-03-01T03:16:20;23.77;;;13.18;;
33714;SDS011;20043;50.998;4.754;2023-03-01T03:18:46;25.75;;;12.50;;
33714;SDS011;20043;50.998;4.754;2023-03-01T03:21:12;22.15;;;13.07;;
33714;SDS011;20043;50.998;4.754;2023-03-01T03:23:39;21.35;;;14.80;;
33714;SDS011;20043;50.998;4.754;2023-03-01T03:26:05;20.48;;;13.23;;
33714;SDS011;20043;50.998;4.754;2023-03-01T03:28:31;29.42;;;12.85;;
33714;SDS011;20043;50.998;4.754;2023-03-01T03:30:58;23.88;;;12.77;;
33714;SDS011;20043;50.998;4.754;2023-03-01T03:33:28;18.10;;;12.25;;
33714;SDS011;20043;50.998;4.754;2023-03-01T03:35:54;19.27;;;11.20;;
33714;SDS011;20043;50.998;4.754;2023-03-01T03:38:20;18.42;;;11.93;;
33714;SDS011;20043;50.998;4.754;2023-03-01T03:40:48;19.50;;;12.10;;
33714;SDS011;20043;50.998;4.754;2023-03-01T03:43:19;19.83;;;11.65;;
33714;SDS011;20043;50.998;4.754;2023-03-01T03:45:46;17.55;;;11.48;;
33714;SDS011;20043;50.998;4.754;2023-03-01T03:48:15;22.70;;;12.27;;
33714;SDS011;20043;50.998;4.754;2023-03-01T03:50:46;19.65;;;11.23;;
33714;SDS011;20043;50.998;4.754;2023-03-01T03:53:14;17.10;;;10.40;;
33714;SDS011;20043;50.998;4.754;2023-03-01T03:55:40;17.42;;;10.98;;
33714;SDS011;20043;50.998;4.754;2023-03-01T03:58:09;17.83;;;10.45;;
33714;SDS011;20043;50.998;4.754;2023-03-01T04:00:36;16.35;;;10.35;;
33714;SDS011;20043;50.998;4.754;2023-03-01T04:03:03;16.25;;;10.45;;
33714;SDS011;20043;50.998;4.754;2023-03-01T04:05:29;17.20;;;10.73;;
33714;SDS011;20043;50.998;4.754;2023-03-01T04:07:55;14.57;;;10.23;;
33714;SDS011;20043;50.998;4.754;2023-03-01T04:10:30;17.75;;;10.93;;
33714;SDS011;20043;50.998;4.754;2023-03-01T04:12:58;15.20;;;10.25;;
33714;SDS011;20043;50.998;4.754;2023-03-01T04:15:25;17.80;;;10.82;;
33714;SDS011;20043;50.998;4.754;2023-03-01T04:17:52;20.48;;;10.88;;
33714;SDS011;20043;50.998;4.754;2023-03-01T04:20:19;17.10;;;11.30;;
33714;SDS011;20043;50.998;4.754;2023-03-01T04:22:57;17.77;;;10.65;;
33714;SDS011;20043;50.998;4.754;2023-03-01T04:25:39;16.50;;;10.52;;
33714;SDS011;20043;50.998;4.754;2023-03-01T04:28:06;17.15;;;11.60;;
33714;SDS011;20043;50.998;4.754;2023-03-01T04:30:32;17.90;;;10.98;;
33714;SDS011;20043;50.998;4.754;2023-03-01T04:33:01;17.33;;;10.95;;
33714;SDS011;20043;50.998;4.754;2023-03-01T04:35:28;17.00;;;10.95;;
33714;SDS011;20043;50.998;4.754;2023-03-01T04:37:54;18.92;;;12.95;;
33714;SDS011;20043;50.998;4.754;2023-03-01T04:40:20;24.17;;;11.18;;
33714;SDS011;20043;50.998;4.754;2023-03-01T04:42:46;15.85;;;11.30;;
33714;SDS011;20043;50.998;4.754;2023-03-01T04:45:12;16.85;;;11.38;;
33714;SDS011;20043;50.998;4.754;2023-03-01T04:47:41;20.27;;;10.65;;
33714;SDS011;20043;50.998;4.754;2023-03-01T04:50:09;17.50;;;10.75;;
33714;SDS011;20043;50.998;4.754;2023-03-01T04:52:35;16.40;;;10.45;;
33714;SDS011;20043;50.998;4.754;2023-03-01T04:55:01;15.20;;;10.50;;
33714;SDS011;20043;50.998;4.754;2023-03-01T04:57:28;19.00;;;11.15;;
33714;SDS011;20043;50.998;4.754;2023-03-01T04:59:54;19.50;;;10.88;;
33714;SDS011;20043;50.998;4.754;2023-03-01T05:02:19;17.75;;;11.10;;
33714;SDS011;20043;50.998;4.754;2023-03-01T05:04:45;19.05;;;10.95;;
33714;SDS011;20043;50.998;4.754;2023-03-01T05:07:11;20.10;;;11.18;;
33714;SDS011;20043;50.998;4.754;2023-03-01T05:09:37;17.55;;;11.63;;
33714;SDS011;20043;50.998;4.754;2023-03-01T05:12:03;18.05;;;10.57;;
33714;SDS011;20043;50.998;4.754;2023-03-01T05:14:29;20.45;;;10.95;;
33714;SDS011;20043;50.998;4.754;2023-03-01T05:16:55;15.82;;;10.73;;
33714;SDS011;20043;50.998;4.754;2023-03-01T05:19:28;16.15;;;10.15;;
33714;SDS011;20043;50.998;4.754;2023-03-01T05:21:55;17.60;;;10.68;;
33714;SDS011;20043;50.998;4.754;2023-03-01T05:26:57;18.13;;;11.30;;
33714;SDS011;20043;50.998;4.754;2023-03-01T05:29:24;17.05;;;11.60;;
33714;SDS011;20043;50.998;4.754;2023-03-01T05:31:58;19.38;;;11.32;;
33714;SDS011;20043;50.998;4.754;2023-03-01T05:34:28;19.58;;;10.80;;
33714;SDS011;20043;50.998;4.754;2023-03-01T05:36:55;15.85;;;11.18;;
33714;SDS011;20043;50.998;4.754;2023-03-01T05:39:22;18.50;;;10.55;;
33714;SDS011;20043;50.998;4.754;2023-03-01T05:41:53;18.77;;;11.23;;
33714;SDS011;20043;50.998;4.754;2023-03-01T05:44:20;18.08;;;11.02;;
33714;SDS011;20043;50.998;4.754;2023-03-01T05:46:46;14.90;;;10.07;;
33714;SDS011;20043;50.998;4.754;2023-03-01T05:49:13;18.73;;;12.23;;
33714;SDS011;20043;50.998;4.754;2023-03-01T05:51:41;21.52;;;11.38;;
33714;SDS011;20043;50.998;4.754;2023-03-01T05:54:08;21.05;;;11.15;;
33714;SDS011;20043;50.998;4.754;2023-03-01T05:56:34;17.45;;;11.32;;
33714;SDS011;20043;50.998;4.754;2023-03-01T05:59:01;18.13;;;11.00;;
33714;SDS011;20043;50.998;4.754;2023-03-01T06:01:28;18.30;;;10.95;;
33714;SDS011;20043;50.998;4.754;2023-03-01T06:03:54;19.25;;;10.60;;
33714;SDS011;20043;50.998;4.754;2023-03-01T06:06:20;19.60;;;11.10;;
33714;SDS011;20043;50.998;4.754;2023-03-01T06:08:46;19.15;;;10.55;;
33714;SDS011;20043;50.998;4.754;2023-03-01T06:11:12;16.88;;;11.00;;
33714;SDS011;20043;50.998;4.754;2023-03-01T06:13:37;16.73;;;10.35;;
33714;SDS011;20043;50.998;4.754;2023-03-01T06:16:06;22.00;;;11.50;;
33714;SDS011;20043;50.998;4.754;2023-03-01T06:18:32;21.45;;;12.25;;
33714;SDS011;20043;50.998;4.754;2023-03-01T06:20:58;20.02;;;12.65;;
33714;SDS011;20043;50.998;4.754;2023-03-01T06:23:24;21.67;;;12.82;;
33714;SDS011;20043;50.998;4.754;2023-03-01T06:25:50;17.20;;;12.27;;
33714;SDS011;20043;50.998;4.754;2023-03-01T06:28:15;22.50;;;12.32;;
33714;SDS011;20043;50.998;4.754;2023-03-01T06:30:41;17.95;;;11.88;;
33714;SDS011;20043;50.998;4.754;2023-03-01T06:33:07;25.83;;;12.10;;
33714;SDS011;20043;50.998;4.754;2023-03-01T06:35:33;20.00;;;12.02;;
33714;SDS011;20043;50.998;4.754;2023-03-01T06:37:59;25.52;;;12.10;;
33714;SDS011;20043;50.998;4.754;2023-03-01T06:40:26;20.90;;;12.65;;
33714;SDS011;20043;50.998;4.754;2023-03-01T06:42:52;21.73;;;11.45;;
33714;SDS011;20043;50.998;4.754;2023-03-01T06:45:18;16.48;;;10.75;;
33714;SDS011;20043;50.998;4.754;2023-03-01T06:47:44;18.85;;;11.68;;
33714;SDS011;20043;50.998;4.754;2023-03-01T06:50:10;21.92;;;12.27;;
33714;SDS011;20043;50.998;4.754;2023-03-01T06:52:36;18.52;;;11.20;;
33714;SDS011;20043;50.998;4.754;2023-03-01T06:55:02;18.70;;;12.13;;
33714;SDS011;20043;50.998;4.754;2023-03-01T06:57:28;28.80;;;11.80;;
33714;SDS011;20043;50.998;4.754;2023-03-01T06:59:54;18.70;;;11.82;;
33714;SDS011;20043;50.998;4.754;2023-03-01T07:02:19;19.00;;;11.05;;
33714;SDS011;20043;50.998;4.754;2023-03-01T07:04:45;20.80;;;11.13;;
33714;SDS011;20043;50.998;4.754;2023-03-01T07:07:11;19.02;;;11.82;;
33714;SDS011;20043;50.998;4.754;2023-03-01T07:09:36;15.60;;;11.07;;
33714;SDS011;20043;50.998;4.754;2023-03-01T07:12:02;21.85;;;11.77;;
33714;SDS011;20043;50.998;4.754;2023-03-01T07:14:28;15.95;;;11.18;;
33714;SDS011;20043;50.998;4.754;2023-03-01T07:16:54;22.13;;;11.88;;
33714;SDS011;20043;50.998;4.754;2023-03-01T07:19:20;19.20;;;11.77;;
33714;SDS011;20043;50.998;4.754;2023-03-01T07:21:46;17.23;;;11.50;;
33714;SDS011;20043;50.998;4.754;2023-03-01T07:24:12;18.65;;;11.35;;
33714;SDS011;20043;50.998;4.754;2023-03-01T07:26:38;17.58;;;11.55;;
33714;SDS011;20043;50.998;4.754;2023-03-01T07:29:05;25.00;;;11.63;;
33714;SDS011;20043;50.998;4.754;2023-03-01T07:31:32;17.35;;;12.13;;
33714;SDS011;20043;50.998;4.754;2023-03-01T07:33:58;23.02;;;12.80;;
33714;SDS011;20043;50.998;4.754;2023-03-01T07:36:24;21.70;;;12.50;;
33714;SDS011;20043;50.998;4.754;2023-03-01T07:38:50;20.80;;;11.63;;
33714;SDS011;20043;50.998;4.754;2023-03-01T07:41:16;21.70;;;11.43;;
33714;SDS011;20043;50.998;4.754;2023-03-01T07:43:41;21.27;;;11.38;;
33714;SDS011;20043;50.998;4.754;2023-03-01T07:46:07;19.35;;;11.20;;
33714;SDS011;20043;50.998;4.754;2023-03-01T07:48:33;16.55;;;11.20;;
33714;SDS011;20043;50.998;4.754;2023-03-01T07:50:59;18.45;;;11.90;;
33714;SDS011;20043;50.998;4.754;2023-03-01T07:53:25;18.13;;;11.15;;
33714;SDS011;20043;50.998;4.754;2023-03-01T07:56:00;18.92;;;11.35;;
33714;SDS011;20043;50.998;4.754;2023-03-01T07:58:27;20.75;;;11.45;;
33714;SDS011;20043;50.998;4.754;2023-03-01T08:00:52;19.83;;;11.30;;
33714;SDS011;20043;50.998;4.754;2023-03-01T08:03:18;18.13;;;11.00;;
33714;SDS011;20043;50.998;4.754;2023-03-01T08:05:43;19.58;;;11.05;;
33714;SDS011;20043;50.998;4.754;2023-03-01T08:08:09;22.80;;;10.82;;
33714;SDS011;20043;50.998;4.754;2023-03-01T08:10:35;19.35;;;11.25;;
33714;SDS011;20043;50.998;4.754;2023-03-01T08:13:01;15.80;;;11.00;;
33714;SDS011;20043;50.998;4.754;2023-03-01T08:15:27;25.67;;;10.95;;
33714;SDS011;20043;50.998;4.754;2023-03-01T08:17:52;19.33;;;10.93;;
33714;SDS011;20043;50.998;4.754;2023-03-01T08:20:18;15.98;;;10.75;;
33714;SDS011;20043;50.998;4.754;2023-03-01T08:22:43;18.70;;;11.82;;
33714;SDS011;20043;50.998;4.754;2023-03-01T08:25:09;16.20;;;10.55;;
33714;SDS011;20043;50.998;4.754;2023-03-01T08:27:35;17.85;;;11.45;;
33714;SDS011;20043;50.998;4.754;2023-03-01T08:30:00;17.17;;;11.05;;
33714;SDS011;20043;50.998;4.754;2023-03-01T08:32:26;19.80;;;10.63;;
33714;SDS011;20043;50.998;4.754;2023-03-01T08:34:51;17.08;;;11.60;;
33714;SDS011;20043;50.998;4.754;2023-03-01T08:37:17;18.60;;;11.38;;
33714;SDS011;20043;50.998;4.754;2023-03-01T08:39:42;20.80;;;12.77;;
33714;SDS011;20043;50.998;4.754;2023-03-01T08:42:08;18.58;;;11.73;;
33714;SDS011;20043;50.998;4.754;2023-03-01T08:44:34;19.70;;;11.20;;
33714;SDS011;20043;50.998;4.754;2023-03-01T08:46:59;18.38;;;11.18;;
33714;SDS011;20043;50.998;4.754;2023-03-01T08:49:27;18.27;;;11.32;;
33714;SDS011;20043;50.998;4.754;2023-03-01T08:51:52;22.08;;;11.73;;
33714;SDS011;20043;50.998;4.754;2023-03-01T08:54:20;18.15;;;10.93;;
33714;SDS011;20043;50.998;4.754;2023-03-01T08:56:46;15.63;;;10.02;;
33714;SDS011;20043;50.998;4.754;2023-03-01T08:59:13;17.05;;;10.63;;
33714;SDS011;20043;50.998;4.754;2023-03-01T09:01:40;18.70;;;11.10;;
33714;SDS011;20043;50.998;4.754;2023-03-01T09:04:08;19.88;;;11.48;;
33714;SDS011;20043;50.998;4.754;2023-03-01T09:06:35;23.85;;;11.43;;
33714;SDS011;20043;50.998;4.754;2023-03-01T09:09:01;16.75;;;10.93;;
33714;SDS011;20043;50.998;4.754;2023-03-01T09:11:29;17.00;;;10.48;;
33714;SDS011;20043;50.998;4.754;2023-03-01T09:13:54;15.63;;;10.82;;
33714;SDS011;20043;50.998;4.754;2023-03-01T09:16:20;18.88;;;11.27;;
33714;SDS011;20043;50.998;4.754;2023-03-01T09:18:53;16.20;;;10.27;;
33714;SDS011;20043;50.998;4.754;2023-03-01T09:21:20;18.85;;;10.40;;
33714;SDS011;20043;50.998;4.754;2023-03-01T09:23:48;18.25;;;10.73;;
33714;SDS011;20043;50.998;4.754;2023-03-01T09:26:15;18.95;;;10.63;;
33714;SDS011;20043;50.998;4.754;2023-03-01T09:28:44;16.08;;;10.73;;
33714;SDS011;20043;50.998;4.754;2023-03-01T09:31:10;14.23;;;9.40;;
33714;SDS011;20043;50.998;4.754;2023-03-01T09:33:38;16.38;;;10.50;;
33714;SDS011;20043;50.998;4.754;2023-03-01T09:36:05;18.80;;;9.88;;
33714;SDS011;20043;50.998;4.754;2023-03-01T09:38:35;22.38;;;9.90;;
33714;SDS011;20043;50.998;4.754;2023-03-01T09:41:01;16.20;;;9.52;;
33714;SDS011;20043;50.998;4.754;2023-03-01T09:46:13;14.15;;;9.73;;
33714;SDS011;20043;50.998;4.754;2023-03-01T09:48:56;22.02;;;10.50;;
33714;SDS011;20043;50.998;4.754;2023-03-01T09:51:27;16.48;;;10.18;;
33714;SDS011;20043;50.998;4.754;2023-03-01T09:53:57;16.05;;;9.48;;
33714;SDS011;20043;50.998;4.754;2023-03-01T09:58:59;18.15;;;10.30;;
33714;SDS011;20043;50.998;4.754;2023-03-01T10:04:11;16.27;;;9.80;;
33714;SDS011;20043;50.998;4.754;2023-03-01T10:09:37;19.55;;;10.70;;
33714;SDS011;20043;50.998;4.754;2023-03-01T10:12:13;17.20;;;9.93;;
33714;SDS011;20043;50.998;4.754;2023-03-01T10:15:04;16.50;;;9.73;;
33714;SDS011;20043;50.998;4.754;2023-03-01T10:17:47;14.75;;;9.63;;
33714;SDS011;20043;50.998;4.754;2023-03-01T10:20:19;15.43;;;9.63;;
33714;SDS011;20043;50.998;4.754;2023-03-01T10:22:47;17.40;;;10.73;;
33714;SDS011;20043;50.998;4.754;2023-03-01T10:25:20;16.10;;;9.52;;
33714;SDS011;20043;50.998;4.754;2023-03-01T10:27:57;17.58;;;9.63;;
33714;SDS011;20043;50.998;4.754;2023-03-01T10:30:37;16.73;;;9.55;;
33714;SDS011;20043;50.998;4.754;2023-03-01T10:36:00;15.82;;;9.85;;
33714;SDS011;20043;50.998;4.754;2023-03-01T10:38:26;18.02;;;10.43;;
33714;SDS011;20043;50.998;4.754;2023-03-01T10:40:57;13.27;;;9.10;;
33714;SDS011;20043;50.998;4.754;2023-03-01T10:43:23;17.50;;;9.32;;
33714;SDS011;20043;50.998;4.754;2023-03-01T10:45:57;14.02;;;8.63;;
33714;SDS011;20043;50.998;4.754;2023-03-01T10:48:24;14.63;;;8.55;;
33714;SDS011;20043;50.998;4.754;2023-03-01T10:53:26;13.55;;;9.15;;
33714;SDS011;20043;50.998;4.754;2023-03-01T10:56:13;15.48;;;8.80;;
33714;SDS011;20043;50.998;4.754;2023-03-01T10:58:41;13.82;;;8.75;;
33714;SDS011;20043;50.998;4.754;2023-03-01T11:04:03;16.35;;;9.25;;
33714;SDS011;20043;50.998;4.754;2023-03-01T11:06:32;17.15;;;8.88;;
33714;SDS011;20043;50.998;4.754;2023-03-01T11:09:12;14.90;;;8.95;;
33714;SDS011;20043;50.998;4.754;2023-03-01T11:11:40;14.68;;;9.05;;
33714;SDS011;20043;50.998;4.754;2023-03-01T11:14:16;13.27;;;8.45;;
33714;SDS011;20043;50.998;4.754;2023-03-01T11:16:44;13.90;;;8.55;;
33714;SDS011;20043;50.998;4.754;2023-03-01T11:22:00;13.05;;;8.57;;
33714;SDS011;20043;50.998;4.754;2023-03-01T11:24:27;13.80;;;9.30;;
33714;SDS011;20043;50.998;4.754;2023-03-01T11:26:58;14.27;;;9.18;;
33714;SDS011;20043;50.998;4.754;2023-03-01T11:29:30;13.70;;;9.02;;
33714;SDS011;20043;50.998;4.754;2023-03-01T11:32:03;14.45;;;8.60;;
33714;SDS011;20043;50.998;4.754;2023-03-01T11:40:13;18.92;;;9.18;;
33714;SDS011;20043;50.998;4.754;2023-03-01T11:43:01;13.43;;;8.23;;
33714;SDS011;20043;50.998;4.754;2023-03-01T11:45:38;15.10;;;9.02;;
33714;SDS011;20043;50.998;4.754;2023-03-01T11:48:33;15.25;;;9.13;;
33714;SDS011;20043;50.998;4.754;2023-03-01T11:51:22;12.57;;;8.93;;
33714;SDS011;20043;50.998;4.754;2023-03-01T11:56:50;15.52;;;8.98;;
33714;SDS011;20043;50.998;4.754;2023-03-01T12:08:33;16.00;;;9.25;;
33714;SDS011;20043;50.998;4.754;2023-03-01T12:25:55;14.82;;;9.00;;
33714;SDS011;20043;50.998;4.754;2023-03-01T12:42:10;15.18;;;9.02;;
33714;SDS011;20043;50.998;4.754;2023-03-01T12:47:26;14.00;;;8.27;;
33714;SDS011;20043;50.998;4.754;2023-03-01T12:50:10;14.48;;;9.32;;
33714;SDS011;20043;50.998;4.754;2023-03-01T12:52:47;16.85;;;9.18;;
33714;SDS011;20043;50.998;4.754;2023-03-01T13:00:52;15.40;;;8.40;;
33714;SDS011;20043;50.998;4.754;2023-03-01T13:06:41;14.20;;;8.85;;
33714;SDS011;20043;50.998;4.754;2023-03-01T13:11:48;14.77;;;9.13;;
33714;SDS011;20043;50.998;4.754;2023-03-01T13:16:46;14.07;;;8.60;;
33714;SDS011;20043;50.998;4.754;2023-03-01T13:19:20;16.45;;;9.45;;
33714;SDS011;20043;50.998;4.754;2023-03-01T13:21:48;13.23;;;9.38;;
33714;SDS011;20043;50.998;4.754;2023-03-01T13:29:45;14.00;;;9.38;;
33714;SDS011;20043;50.998;4.754;2023-03-01T13:32:31;21.15;;;10.27;;
33714;SDS011;20043;50.998;4.754;2023-03-01T13:37:41;14.45;;;8.85;;
33714;SDS011;20043;50.998;4.754;2023-03-01T13:42:44;11.43;;;7.90;;
33714;SDS011;20043;50.998;4.754;2023-03-01T13:47:51;13.23;;;8.10;;
33714;SDS011;20043;50.998;4.754;2023-03-01T13:50:21;12.95;;;8.82;;
33714;SDS011;20043;50.998;4.754;2023-03-01T13:55:42;12.77;;;7.82;;
33714;SDS011;20043;50.998;4.754;2023-03-01T13:58:19;11.98;;;8.15;;
33714;SDS011;20043;50.998;4.754;2023-03-01T14:00:55;19.40;;;8.05;;
33714;SDS011;20043;50.998;4.754;2023-03-01T14:03:31;13.55;;;8.70;;
33714;SDS011;20043;50.998;4.754;2023-03-01T14:06:08;14.85;;;8.77;;
33714;SDS011;20043;50.998;4.754;2023-03-01T14:08:40;13.60;;;8.68;;
33714;SDS011;20043;50.998;4.754;2023-03-01T14:19:59;13.20;;;8.13;;
33714;SDS011;20043;50.998;4.754;2023-03-01T14:22:33;16.77;;;9.07;;
33714;SDS011;20043;50.998;4.754;2023-03-01T14:25:16;13.55;;;7.70;;
33714;SDS011;20043;50.998;4.754;2023-03-01T14:27:42;11.55;;;7.95;;
33714;SDS011;20043;50.998;4.754;2023-03-01T14:30:18;15.13;;;7.93;;
33714;SDS011;20043;50.998;4.754;2023-03-01T14:32:53;13.65;;;8.43;;
33714;SDS011;20043;50.998;4.754;2023-03-01T14:35:27;13.00;;;7.72;;
33714;SDS011;20043;50.998;4.754;2023-03-01T14:37:55;15.50;;;8.07;;
33714;SDS011;20043;50.998;4.754;2023-03-01T14:40:34;12.45;;;7.60;;
33714;SDS011;20043;50.998;4.754;2023-03-01T14:43:03;12.30;;;7.70;;
33714;SDS011;20043;50.998;4.754;2023-03-01T14:45:35;13.88;;;7.80;;
33714;SDS011;20043;50.998;4.754;2023-03-01T14:48:02;15.57;;;7.03;;
33714;SDS011;20043;50.998;4.754;2023-03-01T14:50:30;11.82;;;7.28;;
33714;SDS011;20043;50.998;4.754;2023-03-01T14:53:01;12.98;;;7.65;;
33714;SDS011;20043;50.998;4.754;2023-03-01T14:55:31;15.35;;;7.82;;
33714;SDS011;20043;50.998;4.754;2023-03-01T14:58:08;11.13;;;7.32;;
33714;SDS011;20043;50.998;4.754;2023-03-01T15:00:36;12.02;;;8.05;;
33714;SDS011;20043;50.998;4.754;2023-03-01T15:03:05;14.50;;;7.10;;
33714;SDS011;20043;50.998;4.754;2023-03-01T15:05:42;13.52;;;7.60;;
33714;SDS011;20043;50.998;4.754;2023-03-01T15:08:13;11.65;;;7.35;;
33714;SDS011;20043;50.998;4.754;2023-03-01T15:13:31;10.45;;;6.70;;
33714;SDS011;20043;50.998;4.754;2023-03-01T15:16:05;12.93;;;7.57;;
33714;SDS011;20043;50.998;4.754;2023-03-01T15:18:55;11.63;;;7.28;;
33714;SDS011;20043;50.998;4.754;2023-03-01T15:21:24;13.65;;;7.53;;
33714;SDS011;20043;50.998;4.754;2023-03-01T15:26:55;13.35;;;6.88;;
33714;SDS011;20043;50.998;4.754;2023-03-01T15:29:27;12.32;;;7.25;;
33714;SDS011;20043;50.998;4.754;2023-03-01T15:32:02;14.68;;;7.40;;
33714;SDS011;20043;50.998;4.754;2023-03-01T15:34:47;11.25;;;6.80;;
33714;SDS011;20043;50.998;4.754;2023-03-01T15:40:25;10.20;;;7.07;;
33714;SDS011;20043;50.998;4.754;2023-03-01T15:45:25;12.27;;;7.25;;
33714;SDS011;20043;50.998;4.754;2023-03-01T15:47:53;13.38;;;6.95;;
33714;SDS011;20043;50.998;4.754;2023-03-01T15:50:24;11.10;;;6.93;;
33714;SDS011;20043;50.998;4.754;2023-03-01T15:52:52;12.98;;;6.63;;
33714;SDS011;20043;50.998;4.754;2023-03-01T15:55:19;11.95;;;7.13;;
33714;SDS011;20043;50.998;4.754;2023-03-01T15:57:47;12.05;;;7.13;;
33714;SDS011;20043;50.998;4.754;2023-03-01T16:00:15;10.38;;;6.85;;
33714;SDS011;20043;50.998;4.754;2023-03-01T16:02:42;11.45;;;6.93;;
33714;SDS011;20043;50.998;4.754;2023-03-01T16:05:12;9.90;;;6.78;;
33714;SDS011;20043;50.998;4.754;2023-03-01T16:07:48;10.55;;;7.22;;
33714;SDS011;20043;50.998;4.754;2023-03-01T16:10:15;12.73;;;7.28;;
33714;SDS011;20043;50.998;4.754;2023-03-01T16:12:41;11.45;;;7.10;;
33714;SDS011;20043;50.998;4.754;2023-03-01T16:15:23;11.32;;;7.25;;
33714;SDS011;20043;50.998;4.754;2023-03-01T16:17:52;12.30;;;7.22;;
33714;SDS011;20043;50.998;4.754;2023-03-01T16:20:18;12.63;;;7.32;;
33714;SDS011;20043;50.998;4.754;2023-03-01T16:22:44;10.35;;;7.10;;
33714;SDS011;20043;50.998;4.754;2023-03-01T16:25:11;12.98;;;8.20;;
33714;SDS011;20043;50.998;4.754;2023-03-01T16:27:38;14.65;;;6.65;;
33714;SDS011;20043;50.998;4.754;2023-03-01T16:30:06;11.43;;;7.30;;
33714;SDS011;20043;50.998;4.754;2023-03-01T16:32:33;12.93;;;7.30;;
33714;SDS011;20043;50.998;4.754;2023-03-01T16:35:03;11.52;;;6.97;;
33714;SDS011;20043;50.998;4.754;2023-03-01T16:37:31;9.25;;;6.57;;
33714;SDS011;20043;50.998;4.754;2023-03-01T16:39:57;13.63;;;6.93;;
33714;SDS011;20043;50.998;4.754;2023-03-01T16:42:23;16.15;;;6.55;;
33714;SDS011;20043;50.998;4.754;2023-03-01T16:44:53;11.38;;;7.10;;
33714;SDS011;20043;50.998;4.754;2023-03-01T16:47:20;10.05;;;6.82;;
33714;SDS011;20043;50.998;4.754;2023-03-01T16:49:45;10.02;;;6.93;;